sensor_id;sensor_type;location;lat;lon;timestamp;P1;durP1;ratioP1;P2;durP2;ratioP2
56581;SDS011;42463;52.214;21.238;2023-01-31T00:01:35;7.20;;;4.80;;
56581;SDS011;42463;52.214;21.238;2023-01-31T00:04:22;10.10;;;5.70;;
56581;SDS011;42463;52.214;21.238;2023-01-31T00:06:58;11.80;;;6.20;;
56581;SDS011;42463;52.214;21.238;2023-01-31T00:09:43;14.20;;;6.50;;
56581;SDS011;42463;52.214;21.238;2023-01-31T00:15:02;9.80;;;5.30;;
56581;SDS011;42463;52.214;21.238;2023-01-31T00:17:31;14.50;;;6.50;;
56581;SDS011;42463;52.214;21.238;2023-01-31T00:20:10;13.00;;;5.20;;
56581;SDS011;42463;52.214;21.238;2023-01-31T00:22:47;9.70;;;5.60;;
56581;SDS011;42463;52.214;21.238;2023-01-31T00:25:24;11.80;;;6.10;;
56581;SDS011;42463;52.214;21.238;2023-01-31T00:28:03;11.10;;;5.40;;
56581;SDS011;42463;52.214;21.238;2023-01-31T00:30:48;11.90;;;5.90;;
56581;SDS011;42463;52.214;21.238;2023-01-31T00:33:34;11.00;;;5.80;;
56581;SDS011;42463;52.214;21.238;2023-01-31T00:36:15;11.30;;;6.10;;
56581;SDS011;42463;52.214;21.238;2023-01-31T00:39:03;12.40;;;5.70;;
56581;SDS011;42463;52.214;21.238;2023-01-31T00:41:30;8.60;;;5.00;;
56581;SDS011;42463;52.214;21.238;2023-01-31T00:43:56;10.90;;;4.70;;
56581;SDS011;42463;52.214;21.238;2023-01-31T00:46:26;10.30;;;5.00;;
56581;SDS011;42463;52.214;21.238;2023-01-31T00:49:11;9.80;;;5.50;;
56581;SDS011;42463;52.214;21.238;2023-01-31T00:51:56;10.80;;;5.40;;
56581;SDS011;42463;52.214;21.238;2023-01-31T00:54:21;10.30;;;6.00;;
56581;SDS011;42463;52.214;21.238;2023-01-31T00:59:38;12.50;;;5.60;;
56581;SDS011;42463;52.214;21.238;2023-01-31T01:05:00;11.10;;;5.20;;
56581;SDS011;42463;52.214;21.238;2023-01-31T01:07:30;10.30;;;5.50;;
56581;SDS011;42463;52.214;21.238;2023-01-31T01:10:07;10.50;;;5.80;;
56581;SDS011;42463;52.214;21.238;2023-01-31T01:12:46;8.60;;;4.90;;
56581;SDS011;42463;52.214;21.238;2023-01-31T01:15:35;15.20;;;5.70;;
56581;SDS011;42463;52.214;21.238;2023-01-31T01:18:00;9.00;;;5.50;;
56581;SDS011;42463;52.214;21.238;2023-01-31T01:20:25;10.00;;;4.80;;
56581;SDS011;42463;52.214;21.238;2023-01-31T01:23:03;9.40;;;4.60;;
56581;SDS011;42463;52.214;21.238;2023-01-31T01:25:43;11.20;;;5.60;;
56581;SDS011;42463;52.214;21.238;2023-01-31T01:28:08;10.90;;;5.80;;
56581;SDS011;42463;52.214;21.238;2023-01-31T01:30:33;12.40;;;6.00;;
56581;SDS011;42463;52.214;21.238;2023-01-31T01:33:18;12.60;;;5.20;;
56581;SDS011;42463;52.214;21.238;2023-01-31T01:35:43;9.40;;;5.50;;
56581;SDS011;42463;52.214;21.238;2023-01-31T01:38:16;10.70;;;5.20;;
56581;SDS011;42463;52.214;21.238;2023-01-31T01:40:54;10.50;;;5.70;;
56581;SDS011;42463;52.214;21.238;2023-01-31T01:43:40;8.80;;;4.80;;
56581;SDS011;42463;52.214;21.238;2023-01-31T01:46:06;7.60;;;5.30;;
56581;SDS011;42463;52.214;21.238;2023-01-31T01:48:33;8.70;;;5.30;;
56581;SDS011;42463;52.214;21.238;2023-01-31T01:51:04;9.10;;;5.20;;
56581;SDS011;42463;52.214;21.238;2023-01-31T01:53:52;8.40;;;5.30;;
56581;SDS011;42463;52.214;21.238;2023-01-31T01:56:33;9.50;;;4.50;;
56581;SDS011;42463;52.214;21.238;2023-01-31T01:59:02;12.80;;;5.10;;
56581;SDS011;42463;52.214;21.238;2023-01-31T02:01:41;8.80;;;4.30;;
56581;SDS011;42463;52.214;21.238;2023-01-31T02:04:24;9.10;;;5.20;;
56581;SDS011;42463;52.214;21.238;2023-01-31T02:07:14;9.20;;;5.30;;
56581;SDS011;42463;52.214;21.238;2023-01-31T02:09:44;10.50;;;5.50;;
56581;SDS011;42463;52.214;21.238;2023-01-31T02:12:34;13.20;;;4.50;;
56581;SDS011;42463;52.214;21.238;2023-01-31T02:15:19;8.90;;;4.20;;
56581;SDS011;42463;52.214;21.238;2023-01-31T02:18:05;8.40;;;4.40;;
56581;SDS011;42463;52.214;21.238;2023-01-31T02:20:57;8.90;;;5.00;;
56581;SDS011;42463;52.214;21.238;2023-01-31T02:24:05;11.00;;;5.70;;
56581;SDS011;42463;52.214;21.238;2023-01-31T02:27:16;11.60;;;5.10;;
56581;SDS011;42463;52.214;21.238;2023-01-31T02:33:39;14.00;;;5.00;;
56581;SDS011;42463;52.214;21.238;2023-01-31T02:36:28;7.60;;;3.90;;
56581;SDS011;42463;52.214;21.238;2023-01-31T02:39:17;16.10;;;5.00;;
56581;SDS011;42463;52.214;21.238;2023-01-31T02:42:11;6.60;;;4.30;;
56581;SDS011;42463;52.214;21.238;2023-01-31T02:44:46;9.20;;;4.10;;
56581;SDS011;42463;52.214;21.238;2023-01-31T02:47:45;9.90;;;4.90;;
56581;SDS011;42463;52.214;21.238;2023-01-31T02:50:30;9.90;;;5.00;;
56581;SDS011;42463;52.214;21.238;2023-01-31T02:53:02;11.20;;;5.10;;
56581;SDS011;42463;52.214;21.238;2023-01-31T02:55:36;8.90;;;4.60;;
56581;SDS011;42463;52.214;21.238;2023-01-31T02:58:23;8.30;;;4.20;;
56581;SDS011;42463;52.214;21.238;2023-01-31T03:00:52;9.00;;;4.20;;
56581;SDS011;42463;52.214;21.238;2023-01-31T03:03:24;10.70;;;4.60;;
56581;SDS011;42463;52.214;21.238;2023-01-31T03:06:09;10.00;;;4.70;;
56581;SDS011;42463;52.214;21.238;2023-01-31T03:08:49;9.60;;;4.40;;
56581;SDS011;42463;52.214;21.238;2023-01-31T03:11:15;5.80;;;3.30;;
56581;SDS011;42463;52.214;21.238;2023-01-31T03:13:45;7.30;;;3.90;;
56581;SDS011;42463;52.214;21.238;2023-01-31T03:16:19;7.10;;;3.70;;
56581;SDS011;42463;52.214;21.238;2023-01-31T03:19:10;13.20;;;4.00;;
56581;SDS011;42463;52.214;21.238;2023-01-31T03:21:53;8.90;;;3.60;;
56581;SDS011;42463;52.214;21.238;2023-01-31T03:24:45;11.20;;;3.60;;
56581;SDS011;42463;52.214;21.238;2023-01-31T03:27:23;8.60;;;3.50;;
56581;SDS011;42463;52.214;21.238;2023-01-31T03:29:49;7.20;;;3.80;;
56581;SDS011;42463;52.214;21.238;2023-01-31T03:32:34;7.20;;;3.00;;
56581;SDS011;42463;52.214;21.238;2023-01-31T03:35:07;8.30;;;3.50;;
56581;SDS011;42463;52.214;21.238;2023-01-31T03:37:56;8.90;;;3.20;;
56581;SDS011;42463;52.214;21.238;2023-01-31T03:40:29;14.80;;;4.80;;
56581;SDS011;42463;52.214;21.238;2023-01-31T03:43:21;8.30;;;3.50;;
56581;SDS011;42463;52.214;21.238;2023-01-31T03:46:10;12.90;;;4.20;;
56581;SDS011;42463;52.214;21.238;2023-01-31T03:49:01;10.90;;;3.70;;
56581;SDS011;42463;52.214;21.238;2023-01-31T03:51:31;11.60;;;3.50;;
56581;SDS011;42463;52.214;21.238;2023-01-31T03:53:59;12.40;;;3.60;;
56581;SDS011;42463;52.214;21.238;2023-01-31T03:56:31;7.30;;;3.70;;
56581;SDS011;42463;52.214;21.238;2023-01-31T03:59:03;12.30;;;3.40;;
56581;SDS011;42463;52.214;21.238;2023-01-31T04:01:34;6.60;;;2.80;;
56581;SDS011;42463;52.214;21.238;2023-01-31T04:04:04;12.20;;;3.30;;
56581;SDS011;42463;52.214;21.238;2023-01-31T04:06:33;6.50;;;2.70;;
56581;SDS011;42463;52.214;21.238;2023-01-31T04:08:59;11.20;;;3.60;;
56581;SDS011;42463;52.214;21.238;2023-01-31T04:11:24;9.70;;;3.30;;
56581;SDS011;42463;52.214;21.238;2023-01-31T04:13:52;10.20;;;3.10;;
56581;SDS011;42463;52.214;21.238;2023-01-31T04:16:26;11.10;;;3.70;;
56581;SDS011;42463;52.214;21.238;2023-01-31T04:18:51;13.90;;;3.20;;
56581;SDS011;42463;52.214;21.238;2023-01-31T04:21:37;8.60;;;2.70;;
56581;SDS011;42463;52.214;21.238;2023-01-31T04:24:12;8.20;;;3.00;;
56581;SDS011;42463;52.214;21.238;2023-01-31T04:26:57;10.60;;;3.10;;
56581;SDS011;42463;52.214;21.238;2023-01-31T04:29:35;10.90;;;3.10;;
56581;SDS011;42463;52.214;21.238;2023-01-31T04:32:14;11.00;;;3.20;;
56581;SDS011;42463;52.214;21.238;2023-01-31T04:34:41;8.70;;;2.30;;
56581;SDS011;42463;52.214;21.238;2023-01-31T04:40:10;8.50;;;2.60;;
56581;SDS011;42463;52.214;21.238;2023-01-31T04:42:47;12.60;;;3.00;;
56581;SDS011;42463;52.214;21.238;2023-01-31T04:45:26;10.70;;;3.20;;
56581;SDS011;42463;52.214;21.238;2023-01-31T04:48:00;10.00;;;2.60;;
56581;SDS011;42463;52.214;21.238;2023-01-31T04:50:28;7.80;;;3.20;;
56581;SDS011;42463;52.214;21.238;2023-01-31T04:52:53;4.00;;;1.90;;
56581;SDS011;42463;52.214;21.238;2023-01-31T04:55:19;10.10;;;2.50;;
56581;SDS011;42463;52.214;21.238;2023-01-31T04:57:47;11.00;;;2.40;;
56581;SDS011;42463;52.214;21.238;2023-01-31T05:00:13;6.10;;;1.90;;
56581;SDS011;42463;52.214;21.238;2023-01-31T05:02:50;10.70;;;2.80;;
56581;SDS011;42463;52.214;21.238;2023-01-31T05:05:16;8.20;;;1.90;;
56581;SDS011;42463;52.214;21.238;2023-01-31T05:07:45;7.40;;;2.20;;
56581;SDS011;42463;52.214;21.238;2023-01-31T05:10:10;8.60;;;2.10;;
56581;SDS011;42463;52.214;21.238;2023-01-31T05:12:36;9.90;;;2.80;;
56581;SDS011;42463;52.214;21.238;2023-01-31T05:15:02;6.50;;;1.90;;
56581;SDS011;42463;52.214;21.238;2023-01-31T05:17:33;12.80;;;2.30;;
56581;SDS011;42463;52.214;21.238;2023-01-31T05:19:58;12.10;;;3.10;;
56581;SDS011;42463;52.214;21.238;2023-01-31T05:22:23;9.80;;;2.70;;
56581;SDS011;42463;52.214;21.238;2023-01-31T05:24:47;8.00;;;2.40;;
56581;SDS011;42463;52.214;21.238;2023-01-31T05:27:17;8.60;;;2.30;;
56581;SDS011;42463;52.214;21.238;2023-01-31T05:29:42;13.60;;;2.80;;
56581;SDS011;42463;52.214;21.238;2023-01-31T05:32:28;6.90;;;2.20;;
56581;SDS011;42463;52.214;21.238;2023-01-31T05:35:04;7.00;;;2.30;;
56581;SDS011;42463;52.214;21.238;2023-01-31T05:37:32;7.40;;;2.00;;
56581;SDS011;42463;52.214;21.238;2023-01-31T05:39:57;10.80;;;2.50;;
56581;SDS011;42463;52.214;21.238;2023-01-31T05:42:22;9.40;;;1.90;;
56581;SDS011;42463;52.214;21.238;2023-01-31T05:44:46;7.80;;;2.40;;
56581;SDS011;42463;52.214;21.238;2023-01-31T05:47:12;6.80;;;2.60;;
56581;SDS011;42463;52.214;21.238;2023-01-31T05:49:36;10.00;;;2.40;;
56581;SDS011;42463;52.214;21.238;2023-01-31T05:52:04;10.00;;;2.50;;
56581;SDS011;42463;52.214;21.238;2023-01-31T05:54:39;10.70;;;2.80;;
56581;SDS011;42463;52.214;21.238;2023-01-31T05:57:03;13.60;;;2.80;;
56581;SDS011;42463;52.214;21.238;2023-01-31T05:59:32;14.00;;;2.70;;
56581;SDS011;42463;52.214;21.238;2023-01-31T06:01:57;7.50;;;2.00;;
56581;SDS011;42463;52.214;21.238;2023-01-31T06:04:24;13.50;;;2.30;;
56581;SDS011;42463;52.214;21.238;2023-01-31T06:06:49;13.10;;;2.80;;
56581;SDS011;42463;52.214;21.238;2023-01-31T06:09:14;8.40;;;1.80;;
56581;SDS011;42463;52.214;21.238;2023-01-31T06:11:39;6.60;;;2.10;;
56581;SDS011;42463;52.214;21.238;2023-01-31T06:14:03;10.00;;;2.20;;
56581;SDS011;42463;52.214;21.238;2023-01-31T06:16:28;9.00;;;2.80;;
56581;SDS011;42463;52.214;21.238;2023-01-31T06:18:53;8.30;;;2.30;;
56581;SDS011;42463;52.214;21.238;2023-01-31T06:21:38;7.80;;;2.20;;
56581;SDS011;42463;52.214;21.238;2023-01-31T06:24:22;6.70;;;1.90;;
56581;SDS011;42463;52.214;21.238;2023-01-31T06:26:58;9.30;;;2.50;;
56581;SDS011;42463;52.214;21.238;2023-01-31T06:29:42;14.80;;;3.00;;
56581;SDS011;42463;52.214;21.238;2023-01-31T06:32:25;5.60;;;1.80;;
56581;SDS011;42463;52.214;21.238;2023-01-31T06:35:10;11.30;;;2.50;;
56581;SDS011;42463;52.214;21.238;2023-01-31T06:37:46;2.90;;;1.40;;
56581;SDS011;42463;52.214;21.238;2023-01-31T06:40:31;9.00;;;2.40;;
56581;SDS011;42463;52.214;21.238;2023-01-31T06:43:17;7.60;;;1.70;;
56581;SDS011;42463;52.214;21.238;2023-01-31T06:45:42;11.80;;;1.90;;
56581;SDS011;42463;52.214;21.238;2023-01-31T06:48:27;7.60;;;2.00;;
56581;SDS011;42463;52.214;21.238;2023-01-31T06:50:52;10.00;;;2.00;;
56581;SDS011;42463;52.214;21.238;2023-01-31T06:53:28;9.60;;;2.00;;
56581;SDS011;42463;52.214;21.238;2023-01-31T06:55:56;6.80;;;2.20;;
56581;SDS011;42463;52.214;21.238;2023-01-31T06:58:32;12.00;;;2.20;;
56581;SDS011;42463;52.214;21.238;2023-01-31T07:01:05;8.80;;;2.00;;
56581;SDS011;42463;52.214;21.238;2023-01-31T07:03:32;6.70;;;2.20;;
56581;SDS011;42463;52.214;21.238;2023-01-31T07:05:59;6.80;;;2.10;;
56581;SDS011;42463;52.214;21.238;2023-01-31T07:08:24;5.90;;;1.90;;
56581;SDS011;42463;52.214;21.238;2023-01-31T07:10:48;12.00;;;2.60;;
56581;SDS011;42463;52.214;21.238;2023-01-31T07:13:13;8.00;;;2.10;;
56581;SDS011;42463;52.214;21.238;2023-01-31T07:15:40;3.90;;;1.20;;
56581;SDS011;42463;52.214;21.238;2023-01-31T07:18:08;6.10;;;1.80;;
56581;SDS011;42463;52.214;21.238;2023-01-31T07:20:33;8.40;;;2.20;;
56581;SDS011;42463;52.214;21.238;2023-01-31T07:22:58;6.40;;;2.20;;
56581;SDS011;42463;52.214;21.238;2023-01-31T07:25:28;9.00;;;2.60;;
56581;SDS011;42463;52.214;21.238;2023-01-31T07:27:54;8.70;;;2.70;;
56581;SDS011;42463;52.214;21.238;2023-01-31T07:30:20;10.10;;;2.40;;
56581;SDS011;42463;52.214;21.238;2023-01-31T07:32:53;12.40;;;2.50;;
56581;SDS011;42463;52.214;21.238;2023-01-31T07:35:23;7.00;;;2.10;;
56581;SDS011;42463;52.214;21.238;2023-01-31T07:37:52;10.90;;;2.40;;
56581;SDS011;42463;52.214;21.238;2023-01-31T07:40:17;7.70;;;1.90;;
56581;SDS011;42463;52.214;21.238;2023-01-31T07:42:43;6.60;;;1.90;;
56581;SDS011;42463;52.214;21.238;2023-01-31T07:45:09;6.20;;;2.20;;
56581;SDS011;42463;52.214;21.238;2023-01-31T07:47:35;4.40;;;2.00;;
56581;SDS011;42463;52.214;21.238;2023-01-31T07:50:00;11.70;;;2.70;;
56581;SDS011;42463;52.214;21.238;2023-01-31T07:52:25;11.60;;;3.00;;
56581;SDS011;42463;52.214;21.238;2023-01-31T07:54:50;9.70;;;2.20;;
56581;SDS011;42463;52.214;21.238;2023-01-31T07:57:15;6.50;;;2.00;;
56581;SDS011;42463;52.214;21.238;2023-01-31T07:59:39;7.80;;;2.20;;
56581;SDS011;42463;52.214;21.238;2023-01-31T08:02:10;11.20;;;2.60;;
56581;SDS011;42463;52.214;21.238;2023-01-31T08:04:54;7.90;;;2.50;;
56581;SDS011;42463;52.214;21.238;2023-01-31T08:07:18;11.90;;;2.30;;
56581;SDS011;42463;52.214;21.238;2023-01-31T08:09:43;9.60;;;1.80;;
56581;SDS011;42463;52.214;21.238;2023-01-31T08:12:10;9.60;;;2.00;;
56581;SDS011;42463;52.214;21.238;2023-01-31T08:14:35;8.80;;;2.20;;
56581;SDS011;42463;52.214;21.238;2023-01-31T08:16:59;7.80;;;2.70;;
56581;SDS011;42463;52.214;21.238;2023-01-31T08:19:24;6.40;;;1.90;;
56581;SDS011;42463;52.214;21.238;2023-01-31T08:21:49;10.20;;;2.90;;
56581;SDS011;42463;52.214;21.238;2023-01-31T08:24:14;8.80;;;2.40;;
56581;SDS011;42463;52.214;21.238;2023-01-31T08:26:44;10.10;;;1.90;;
56581;SDS011;42463;52.214;21.238;2023-01-31T08:29:09;8.10;;;1.90;;
56581;SDS011;42463;52.214;21.238;2023-01-31T08:31:34;7.70;;;1.50;;
56581;SDS011;42463;52.214;21.238;2023-01-31T08:33:59;7.20;;;1.90;;
56581;SDS011;42463;52.214;21.238;2023-01-31T08:36:24;7.30;;;2.20;;
56581;SDS011;42463;52.214;21.238;2023-01-31T08:38:52;7.60;;;2.70;;
56581;SDS011;42463;52.214;21.238;2023-01-31T08:41:19;7.50;;;2.10;;
56581;SDS011;42463;52.214;21.238;2023-01-31T08:43:45;13.10;;;2.40;;
56581;SDS011;42463;52.214;21.238;2023-01-31T08:46:10;10.10;;;1.90;;
56581;SDS011;42463;52.214;21.238;2023-01-31T08:48:36;9.10;;;2.60;;
56581;SDS011;42463;52.214;21.238;2023-01-31T08:51:12;8.30;;;3.10;;
56581;SDS011;42463;52.214;21.238;2023-01-31T08:53:57;10.00;;;2.80;;
56581;SDS011;42463;52.214;21.238;2023-01-31T08:56:42;6.80;;;2.20;;
56581;SDS011;42463;52.214;21.238;2023-01-31T08:59:27;4.90;;;1.70;;
56581;SDS011;42463;52.214;21.238;2023-01-31T09:02:05;3.70;;;1.80;;
56581;SDS011;42463;52.214;21.238;2023-01-31T09:04:42;11.40;;;2.40;;
56581;SDS011;42463;52.214;21.238;2023-01-31T09:07:16;10.00;;;3.40;;
56581;SDS011;42463;52.214;21.238;2023-01-31T09:09:56;6.70;;;2.10;;
56581;SDS011;42463;52.214;21.238;2023-01-31T09:12:21;5.60;;;2.40;;
56581;SDS011;42463;52.214;21.238;2023-01-31T09:15:05;9.30;;;1.90;;
56581;SDS011;42463;52.214;21.238;2023-01-31T09:17:46;6.60;;;1.60;;
56581;SDS011;42463;52.214;21.238;2023-01-31T09:20:14;8.10;;;1.90;;
56581;SDS011;42463;52.214;21.238;2023-01-31T09:22:39;5.00;;;1.60;;
56581;SDS011;42463;52.214;21.238;2023-01-31T09:25:24;8.70;;;2.30;;
56581;SDS011;42463;52.214;21.238;2023-01-31T09:28:02;14.70;;;2.60;;
56581;SDS011;42463;52.214;21.238;2023-01-31T09:30:48;5.00;;;1.40;;
56581;SDS011;42463;52.214;21.238;2023-01-31T09:33:34;6.10;;;1.60;;
56581;SDS011;42463;52.214;21.238;2023-01-31T09:36:19;11.40;;;1.90;;
56581;SDS011;42463;52.214;21.238;2023-01-31T09:39:14;6.90;;;1.80;;
56581;SDS011;42463;52.214;21.238;2023-01-31T09:41:40;8.60;;;2.00;;
56581;SDS011;42463;52.214;21.238;2023-01-31T09:44:16;6.50;;;2.40;;
56581;SDS011;42463;52.214;21.238;2023-01-31T09:46:49;6.20;;;2.20;;
56581;SDS011;42463;52.214;21.238;2023-01-31T09:49:41;8.30;;;3.00;;
56581;SDS011;42463;52.214;21.238;2023-01-31T09:52:09;12.60;;;2.90;;
56581;SDS011;42463;52.214;21.238;2023-01-31T09:54:35;9.20;;;2.60;;
56581;SDS011;42463;52.214;21.238;2023-01-31T09:57:06;8.20;;;2.30;;
56581;SDS011;42463;52.214;21.238;2023-01-31T09:59:41;4.60;;;1.80;;
56581;SDS011;42463;52.214;21.238;2023-01-31T10:02:37;5.10;;;2.50;;
56581;SDS011;42463;52.214;21.238;2023-01-31T10:05:22;11.20;;;3.30;;
56581;SDS011;42463;52.214;21.238;2023-01-31T10:07:58;6.40;;;2.50;;
56581;SDS011;42463;52.214;21.238;2023-01-31T10:10:32;6.90;;;2.40;;
56581;SDS011;42463;52.214;21.238;2023-01-31T10:13:02;8.70;;;2.90;;
56581;SDS011;42463;52.214;21.238;2023-01-31T10:15:35;8.30;;;2.70;;
56581;SDS011;42463;52.214;21.238;2023-01-31T10:18:06;6.70;;;2.00;;
56581;SDS011;42463;52.214;21.238;2023-01-31T10:20:48;11.50;;;3.40;;
56581;SDS011;42463;52.214;21.238;2023-01-31T10:23:24;7.40;;;2.40;;
56581;SDS011;42463;52.214;21.238;2023-01-31T10:26:07;11.00;;;2.90;;
56581;SDS011;42463;52.214;21.238;2023-01-31T10:28:50;8.10;;;2.30;;
56581;SDS011;42463;52.214;21.238;2023-01-31T10:31:24;8.50;;;2.30;;
56581;SDS011;42463;52.214;21.238;2023-01-31T10:34:08;7.20;;;2.90;;
56581;SDS011;42463;52.214;21.238;2023-01-31T10:36:52;13.50;;;3.00;;
56581;SDS011;42463;52.214;21.238;2023-01-31T10:39:25;6.90;;;2.60;;
56581;SDS011;42463;52.214;21.238;2023-01-31T10:42:13;7.70;;;2.30;;
56581;SDS011;42463;52.214;21.238;2023-01-31T10:44:46;7.60;;;1.80;;
56581;SDS011;42463;52.214;21.238;2023-01-31T10:47:28;8.90;;;3.20;;
56581;SDS011;42463;52.214;21.238;2023-01-31T10:49:57;9.70;;;3.00;;
56581;SDS011;42463;52.214;21.238;2023-01-31T10:52:29;7.60;;;2.80;;
56581;SDS011;42463;52.214;21.238;2023-01-31T10:55:12;6.80;;;2.10;;
56581;SDS011;42463;52.214;21.238;2023-01-31T10:58:01;9.10;;;3.00;;
56581;SDS011;42463;52.214;21.238;2023-01-31T11:00:29;6.20;;;2.00;;
56581;SDS011;42463;52.214;21.238;2023-01-31T11:02:56;6.30;;;1.90;;
56581;SDS011;42463;52.214;21.238;2023-01-31T11:05:22;7.50;;;2.20;;
56581;SDS011;42463;52.214;21.238;2023-01-31T11:07:49;5.80;;;2.00;;
56581;SDS011;42463;52.214;21.238;2023-01-31T11:10:22;8.10;;;2.60;;
56581;SDS011;42463;52.214;21.238;2023-01-31T11:12:53;6.50;;;2.20;;
56581;SDS011;42463;52.214;21.238;2023-01-31T11:15:24;4.40;;;2.30;;
56581;SDS011;42463;52.214;21.238;2023-01-31T11:17:51;6.80;;;2.20;;
56581;SDS011;42463;52.214;21.238;2023-01-31T11:20:44;11.00;;;3.00;;
56581;SDS011;42463;52.214;21.238;2023-01-31T11:23:31;4.80;;;2.20;;
56581;SDS011;42463;52.214;21.238;2023-01-31T11:26:06;4.90;;;2.10;;
56581;SDS011;42463;52.214;21.238;2023-01-31T11:28:34;5.70;;;1.80;;
56581;SDS011;42463;52.214;21.238;2023-01-31T11:31:23;5.40;;;2.00;;
56581;SDS011;42463;52.214;21.238;2023-01-31T11:34:16;5.90;;;1.90;;
56581;SDS011;42463;52.214;21.238;2023-01-31T11:36:43;6.10;;;1.70;;
56581;SDS011;42463;52.214;21.238;2023-01-31T11:39:28;3.90;;;1.80;;
56581;SDS011;42463;52.214;21.238;2023-01-31T11:42:17;7.60;;;2.60;;
56581;SDS011;42463;52.214;21.238;2023-01-31T11:45:09;11.40;;;2.40;;
56581;SDS011;42463;52.214;21.238;2023-01-31T11:47:41;8.50;;;2.30;;
56581;SDS011;42463;52.214;21.238;2023-01-31T11:50:31;9.40;;;1.90;;
56581;SDS011;42463;52.214;21.238;2023-01-31T11:53:16;6.80;;;2.10;;
56581;SDS011;42463;52.214;21.238;2023-01-31T11:56:10;6.80;;;2.20;;
56581;SDS011;42463;52.214;21.238;2023-01-31T11:58:38;8.50;;;3.60;;
56581;SDS011;42463;52.214;21.238;2023-01-31T12:01:07;8.50;;;2.60;;
56581;SDS011;42463;52.214;21.238;2023-01-31T12:03:39;5.50;;;2.30;;
56581;SDS011;42463;52.214;21.238;2023-01-31T12:06:10;7.90;;;2.20;;
56581;SDS011;42463;52.214;21.238;2023-01-31T12:08:50;8.90;;;2.60;;
56581;SDS011;42463;52.214;21.238;2023-01-31T12:11:25;4.90;;;2.20;;
56581;SDS011;42463;52.214;21.238;2023-01-31T12:13:53;4.20;;;1.50;;
56581;SDS011;42463;52.214;21.238;2023-01-31T12:16:31;5.80;;;1.90;;
56581;SDS011;42463;52.214;21.238;2023-01-31T12:19:02;11.30;;;2.80;;
56581;SDS011;42463;52.214;21.238;2023-01-31T12:22:05;6.90;;;2.60;;
56581;SDS011;42463;52.214;21.238;2023-01-31T12:24:39;5.40;;;2.10;;
56581;SDS011;42463;52.214;21.238;2023-01-31T12:27:38;9.10;;;2.50;;
56581;SDS011;42463;52.214;21.238;2023-01-31T12:30:37;8.00;;;2.20;;
56581;SDS011;42463;52.214;21.238;2023-01-31T12:33:30;6.80;;;2.40;;
56581;SDS011;42463;52.214;21.238;2023-01-31T12:36:23;8.20;;;2.70;;
56581;SDS011;42463;52.214;21.238;2023-01-31T12:39:01;10.50;;;2.40;;
56581;SDS011;42463;52.214;21.238;2023-01-31T12:42:11;6.80;;;2.60;;
56581;SDS011;42463;52.214;21.238;2023-01-31T12:45:18;9.10;;;3.70;;
56581;SDS011;42463;52.214;21.238;2023-01-31T12:50:49;5.40;;;1.80;;
56581;SDS011;42463;52.214;21.238;2023-01-31T12:53:35;10.10;;;2.50;;
56581;SDS011;42463;52.214;21.238;2023-01-31T12:56:16;5.30;;;2.00;;
56581;SDS011;42463;52.214;21.238;2023-01-31T12:58:54;8.00;;;2.50;;
56581;SDS011;42463;52.214;21.238;2023-01-31T13:01:30;7.90;;;2.20;;
56581;SDS011;42463;52.214;21.238;2023-01-31T13:04:01;3.10;;;1.60;;
56581;SDS011;42463;52.214;21.238;2023-01-31T13:06:41;7.80;;;2.80;;
56581;SDS011;42463;52.214;21.238;2023-01-31T13:09:12;5.50;;;1.90;;
56581;SDS011;42463;52.214;21.238;2023-01-31T13:11:45;6.20;;;2.20;;
56581;SDS011;42463;52.214;21.238;2023-01-31T13:14:16;5.80;;;2.00;;
56581;SDS011;42463;52.214;21.238;2023-01-31T13:16:46;6.10;;;2.30;;
56581;SDS011;42463;52.214;21.238;2023-01-31T13:19:17;8.60;;;2.50;;
56581;SDS011;42463;52.214;21.238;2023-01-31T13:21:46;10.10;;;2.50;;
56581;SDS011;42463;52.214;21.238;2023-01-31T13:24:15;8.40;;;2.70;;
56581;SDS011;42463;52.214;21.238;2023-01-31T13:26:44;6.10;;;2.60;;
56581;SDS011;42463;52.214;21.238;2023-01-31T13:29:13;5.60;;;1.90;;
56581;SDS011;42463;52.214;21.238;2023-01-31T13:31:43;7.00;;;2.40;;
56581;SDS011;42463;52.214;21.238;2023-01-31T13:34:13;4.70;;;2.00;;
56581;SDS011;42463;52.214;21.238;2023-01-31T13:36:41;9.20;;;2.80;;
56581;SDS011;42463;52.214;21.238;2023-01-31T13:39:12;5.20;;;2.20;;
56581;SDS011;42463;52.214;21.238;2023-01-31T13:41:44;7.90;;;3.70;;
56581;SDS011;42463;52.214;21.238;2023-01-31T13:44:10;5.20;;;2.30;;
56581;SDS011;42463;52.214;21.238;2023-01-31T13:46:38;5.70;;;2.00;;
56581;SDS011;42463;52.214;21.238;2023-01-31T13:49:09;5.80;;;1.80;;
56581;SDS011;42463;52.214;21.238;2023-01-31T13:51:45;7.30;;;2.10;;
56581;SDS011;42463;52.214;21.238;2023-01-31T13:54:15;8.00;;;2.80;;
56581;SDS011;42463;52.214;21.238;2023-01-31T13:56:47;6.20;;;2.10;;
56581;SDS011;42463;52.214;21.238;2023-01-31T13:59:17;6.50;;;2.50;;
56581;SDS011;42463;52.214;21.238;2023-01-31T14:01:46;6.50;;;2.20;;
56581;SDS011;42463;52.214;21.238;2023-01-31T14:04:29;5.40;;;2.60;;
56581;SDS011;42463;52.214;21.238;2023-01-31T14:16:02;4.60;;;3.10;;
56581;SDS011;42463;52.214;21.238;2023-01-31T14:19:00;6.10;;;2.70;;
56581;SDS011;42463;52.214;21.238;2023-01-31T14:21:43;5.80;;;2.80;;
56581;SDS011;42463;52.214;21.238;2023-01-31T14:27:30;7.00;;;3.00;;
56581;SDS011;42463;52.214;21.238;2023-01-31T14:33:07;8.40;;;2.80;;
56581;SDS011;42463;52.214;21.238;2023-01-31T14:35:43;5.80;;;3.00;;
56581;SDS011;42463;52.214;21.238;2023-01-31T14:38:21;6.80;;;3.10;;
56581;SDS011;42463;52.214;21.238;2023-01-31T14:41:19;6.50;;;3.10;;
56581;SDS011;42463;52.214;21.238;2023-01-31T14:44:01;10.00;;;3.30;;
56581;SDS011;42463;52.214;21.238;2023-01-31T14:46:58;7.00;;;3.40;;
56581;SDS011;42463;52.214;21.238;2023-01-31T14:49:42;6.80;;;2.90;;
56581;SDS011;42463;52.214;21.238;2023-01-31T14:52:30;6.80;;;2.70;;
56581;SDS011;42463;52.214;21.238;2023-01-31T14:58:01;7.90;;;3.20;;
56581;SDS011;42463;52.214;21.238;2023-01-31T15:00:42;7.10;;;3.00;;
56581;SDS011;42463;52.214;21.238;2023-01-31T15:03:13;8.40;;;3.20;;
56581;SDS011;42463;52.214;21.238;2023-01-31T15:05:43;10.30;;;3.60;;
56581;SDS011;42463;52.214;21.238;2023-01-31T15:11:38;8.00;;;3.70;;
56581;SDS011;42463;52.214;21.238;2023-01-31T15:16:46;6.40;;;3.20;;
56581;SDS011;42463;52.214;21.238;2023-01-31T15:19:38;6.70;;;3.10;;
56581;SDS011;42463;52.214;21.238;2023-01-31T15:22:21;8.80;;;3.20;;
56581;SDS011;42463;52.214;21.238;2023-01-31T15:25:11;11.10;;;3.60;;
56581;SDS011;42463;52.214;21.238;2023-01-31T15:28:00;7.50;;;3.90;;
56581;SDS011;42463;52.214;21.238;2023-01-31T15:30:41;8.70;;;3.40;;
56581;SDS011;42463;52.214;21.238;2023-01-31T15:33:18;9.70;;;3.90;;
56581;SDS011;42463;52.214;21.238;2023-01-31T15:35:55;7.50;;;3.00;;
56581;SDS011;42463;52.214;21.238;2023-01-31T15:38:46;6.10;;;3.40;;
56581;SDS011;42463;52.214;21.238;2023-01-31T15:41:31;12.20;;;3.90;;
56581;SDS011;42463;52.214;21.238;2023-01-31T15:44:10;11.20;;;3.90;;
56581;SDS011;42463;52.214;21.238;2023-01-31T15:46:40;7.70;;;3.20;;
56581;SDS011;42463;52.214;21.238;2023-01-31T15:49:22;6.60;;;2.90;;
56581;SDS011;42463;52.214;21.238;2023-01-31T15:52:04;12.50;;;4.70;;
56581;SDS011;42463;52.214;21.238;2023-01-31T15:54:53;10.50;;;3.70;;
56581;SDS011;42463;52.214;21.238;2023-01-31T15:57:35;11.30;;;3.90;;
56581;SDS011;42463;52.214;21.238;2023-01-31T16:00:05;8.70;;;3.80;;
56581;SDS011;42463;52.214;21.238;2023-01-31T16:02:42;10.80;;;4.10;;